sensor_id;sensor_type;location;lat;lon;timestamp;pressure;altitude;pressure_sealevel;temperature;humidity
15056;BME280;7626;42.674;23.284;2023-01-25T04:32:42;95795.31;;;6.25;66.86
15056;BME280;7626;42.674;23.284;2023-01-25T04:35:09;95794.28;;;6.30;68.50
15056;BME280;7626;42.674;23.284;2023-01-25T04:37:36;95798.78;;;6.24;66.81
15056;BME280;7626;42.674;23.284;2023-01-25T04:40:06;95806.44;;;6.26;67.49
15056;BME280;7626;42.674;23.284;2023-01-25T04:42:40;95803.75;;;6.29;68.31
15056;BME280;7626;42.674;23.284;2023-01-25T04:45:16;95801.19;;;6.29;67.38
15056;BME280;7626;42.674;23.284;2023-01-25T04:47:48;95804.34;;;6.36;68.02
15056;BME280;7626;42.674;23.284;2023-01-25T04:50:16;95803.22;;;6.21;67.55
15056;BME280;7626;42.674;23.284;2023-01-25T04:52:44;95801.34;;;6.04;67.66
15056;BME280;7626;42.674;23.284;2023-01-25T04:55:12;95798.50;;;6.10;67.13
15056;BME280;7626;42.674;23.284;2023-01-25T04:57:40;95800.72;;;6.19;67.73
15056;BME280;7626;42.674;23.284;2023-01-25T05:00:08;95801.50;;;6.21;68.18
15056;BME280;7626;42.674;23.284;2023-01-25T05:02:36;95800.53;;;6.24;67.82
15056;BME280;7626;42.674;23.284;2023-01-25T05:05:06;95793.56;;;6.26;68.75
15056;BME280;7626;42.674;23.284;2023-01-25T05:07:33;95797.13;;;6.23;66.92
15056;BME280;7626;42.674;23.284;2023-01-25T05:10:01;95796.91;;;6.28;67.79
15056;BME280;7626;42.674;23.284;2023-01-25T05:12:31;95793.97;;;6.17;67.79
15056;BME280;7626;42.674;23.284;2023-01-25T05:14:59;95800.66;;;6.21;66.73
15056;BME280;7626;42.674;23.284;2023-01-25T05:17:26;95799.72;;;6.23;67.50
15056;BME280;7626;42.674;23.284;2023-01-25T05:19:53;95791.91;;;6.25;67.33
15056;BME280;7626;42.674;23.284;2023-01-25T05:22:22;95787.25;;;6.13;65.98
15056;BME280;7626;42.674;23.284;2023-01-25T05:24:51;95783.97;;;6.09;65.98
15056;BME280;7626;42.674;23.284;2023-01-25T05:27:19;95784.94;;;6.06;65.86
15056;BME280;7626;42.674;23.284;2023-01-25T05:29:46;95792.47;;;6.11;66.32
15056;BME280;7626;42.674;23.284;2023-01-25T05:32:14;95790.88;;;6.08;65.61
15056;BME280;7626;42.674;23.284;2023-01-25T05:34:42;95788.88;;;6.15;67.09
15056;BME280;7626;42.674;23.284;2023-01-25T05:37:11;95793.00;;;6.19;66.83
15056;BME280;7626;42.674;23.284;2023-01-25T05:39:39;95797.69;;;6.10;65.47
15056;BME280;7626;42.674;23.284;2023-01-25T05:42:09;95791.19;;;6.01;65.35
15056;BME280;7626;42.674;23.284;2023-01-25T05:44:38;95790.94;;;6.07;66.77
15056;BME280;7626;42.674;23.284;2023-01-25T05:47:21;95793.44;;;6.08;66.40
15056;BME280;7626;42.674;23.284;2023-01-25T05:49:50;95794.22;;;6.11;65.62
15056;BME280;7626;42.674;23.284;2023-01-25T05:52:17;95796.66;;;6.14;65.13
15056;BME280;7626;42.674;23.284;2023-01-25T05:54:50;95796.66;;;5.92;65.65
15056;BME280;7626;42.674;23.284;2023-01-25T05:57:17;95800.84;;;5.94;67.80
15056;BME280;7626;42.674;23.284;2023-01-25T05:59:45;95806.44;;;6.05;67.79
15056;BME280;7626;42.674;23.284;2023-01-25T06:02:13;95806.56;;;6.02;66.48
15056;BME280;7626;42.674;23.284;2023-01-25T06:04:41;95803.56;;;5.91;66.56
15056;BME280;7626;42.674;23.284;2023-01-25T06:07:07;95807.50;;;6.00;65.70
15056;BME280;7626;42.674;23.284;2023-01-25T06:09:34;95804.00;;;6.02;65.72
15056;BME280;7626;42.674;23.284;2023-01-25T06:12:03;95799.50;;;6.07;66.39
15056;BME280;7626;42.674;23.284;2023-01-25T06:14:32;95810.56;;;6.10;66.03
15056;BME280;7626;42.674;23.284;2023-01-25T06:17:00;95809.72;;;6.09;66.08
15056;BME280;7626;42.674;23.284;2023-01-25T06:19:27;95810.50;;;6.11;66.40
15056;BME280;7626;42.674;23.284;2023-01-25T06:21:54;95815.69;;;6.10;65.83
15056;BME280;7626;42.674;23.284;2023-01-25T06:24:21;95811.78;;;6.01;65.48
15056;BME280;7626;42.674;23.284;2023-01-25T06:26:47;95810.69;;;5.84;65.47
15056;BME280;7626;42.674;23.284;2023-01-25T06:29:16;95806.81;;;5.74;65.74
15056;BME280;7626;42.674;23.284;2023-01-25T06:31:42;95811.31;;;5.89;65.34
15056;BME280;7626;42.674;23.284;2023-01-25T06:34:09;95811.97;;;5.95;65.32
15056;BME280;7626;42.674;23.284;2023-01-25T06:36:36;95809.31;;;5.98;65.38
15056;BME280;7626;42.674;23.284;2023-01-25T06:39:05;95800.78;;;5.96;65.60
15056;BME280;7626;42.674;23.284;2023-01-25T06:41:40;95811.84;;;5.99;65.23
15056;BME280;7626;42.674;23.284;2023-01-25T06:44:11;95806.81;;;5.96;65.80
15056;BME280;7626;42.674;23.284;2023-01-25T06:46:40;95800.78;;;5.97;65.05
15056;BME280;7626;42.674;23.284;2023-01-25T06:49:09;95804.22;;;5.96;64.63
15056;BME280;7626;42.674;23.284;2023-01-25T06:51:39;95803.56;;;5.91;64.99
15056;BME280;7626;42.674;23.284;2023-01-25T06:54:06;95809.06;;;5.82;65.56
15056;BME280;7626;42.674;23.284;2023-01-25T06:56:34;95804.06;;;5.77;65.39
15056;BME280;7626;42.674;23.284;2023-01-25T06:59:03;95801.81;;;5.92;66.18
15056;BME280;7626;42.674;23.284;2023-01-25T07:01:30;95797.41;;;5.94;66.82
15056;BME280;7626;42.674;23.284;2023-01-25T07:04:04;95800.16;;;5.90;65.38
15056;BME280;7626;42.674;23.284;2023-01-25T07:06:34;95802.47;;;5.97;66.32
15056;BME280;7626;42.674;23.284;2023-01-25T07:09:05;95805.78;;;6.00;66.05
15056;BME280;7626;42.674;23.284;2023-01-25T07:11:33;95807.63;;;5.97;65.52
15056;BME280;7626;42.674;23.284;2023-01-25T07:14:01;95803.72;;;5.86;65.09
15056;BME280;7626;42.674;23.284;2023-01-25T07:16:30;95803.44;;;5.94;65.52
15056;BME280;7626;42.674;23.284;2023-01-25T07:19:02;95802.47;;;5.97;66.24
15056;BME280;7626;42.674;23.284;2023-01-25T07:21:30;95811.84;;;5.99;65.94
15056;BME280;7626;42.674;23.284;2023-01-25T07:23:59;95803.50;;;5.93;64.13
15056;BME280;7626;42.674;23.284;2023-01-25T07:26:29;95804.22;;;5.96;64.79
15056;BME280;7626;42.674;23.284;2023-01-25T07:28:59;95809.06;;;6.04;66.22
15056;BME280;7626;42.674;23.284;2023-01-25T07:31:26;95821.31;;;5.99;64.36
15056;BME280;7626;42.674;23.284;2023-01-25T07:33:55;95812.44;;;5.84;64.56
15056;BME280;7626;42.674;23.284;2023-01-25T07:36:25;95812.88;;;5.94;65.32
15056;BME280;7626;42.674;23.284;2023-01-25T07:38:54;95821.44;;;5.94;63.83
15056;BME280;7626;42.674;23.284;2023-01-25T07:41:21;95823.97;;;5.96;64.89
15056;BME280;7626;42.674;23.284;2023-01-25T07:43:49;95822.19;;;5.98;65.01
15056;BME280;7626;42.674;23.284;2023-01-25T07:46:19;95818.56;;;6.02;65.49
15056;BME280;7626;42.674;23.284;2023-01-25T07:48:50;95826.06;;;6.08;66.55
15056;BME280;7626;42.674;23.284;2023-01-25T07:51:20;95823.38;;;6.11;66.02
15056;BME280;7626;42.674;23.284;2023-01-25T07:53:55;95828.41;;;6.14;66.08
15056;BME280;7626;42.674;23.284;2023-01-25T07:56:24;95823.19;;;6.16;66.50
15056;BME280;7626;42.674;23.284;2023-01-25T07:58:53;95820.44;;;6.20;66.85
15056;BME280;7626;42.674;23.284;2023-01-25T08:01:23;95823.78;;;6.22;66.10
15056;BME280;7626;42.674;23.284;2023-01-25T08:03:50;95821.13;;;6.24;66.43
15056;BME280;7626;42.674;23.284;2023-01-25T08:06:22;95820.94;;;6.29;66.55
15056;BME280;7626;42.674;23.284;2023-01-25T08:08:53;95817.16;;;6.17;64.77
15056;BME280;7626;42.674;23.284;2023-01-25T08:11:25;95818.69;;;6.21;65.56
15056;BME280;7626;42.674;23.284;2023-01-25T08:13:53;95818.81;;;6.18;65.52
15056;BME280;7626;42.674;23.284;2023-01-25T08:16:25;95813.66;;;6.18;64.73
15056;BME280;7626;42.674;23.284;2023-01-25T08:18:56;95822.41;;;6.14;64.45
15056;BME280;7626;42.674;23.284;2023-01-25T08:21:27;95819.63;;;6.18;64.86
15056;BME280;7626;42.674;23.284;2023-01-25T08:24:09;95820.66;;;6.14;64.83
15056;BME280;7626;42.674;23.284;2023-01-25T08:26:38;95822.28;;;6.17;64.72
15056;BME280;7626;42.674;23.284;2023-01-25T08:29:09;95814.63;;;6.15;65.23
15056;BME280;7626;42.674;23.284;2023-01-25T08:31:39;95811.06;;;6.18;65.52
15056;BME280;7626;42.674;23.284;2023-01-25T08:34:12;95807.69;;;6.17;65.61
15056;BME280;7626;42.674;23.284;2023-01-25T08:36:40;95804.34;;;6.15;64.23
15056;BME280;7626;42.674;23.284;2023-01-25T08:39:11;95814.63;;;6.15;65.03
15056;BME280;7626;42.674;23.284;2023-01-25T08:41:38;95819.78;;;6.15;65.33
15056;BME280;7626;42.674;23.284;2023-01-25T08:44:08;95812.13;;;6.14;65.15
15056;BME280;7626;42.674;23.284;2023-01-25T08:46:37;95802.47;;;6.19;66.20
15056;BME280;7626;42.674;23.284;2023-01-25T08:49:05;95801.53;;;6.20;66.11
15056;BME280;7626;42.674;23.284;2023-01-25T08:51:33;95803.53;;;6.13;65.27
15056;BME280;7626;42.674;23.284;2023-01-25T08:54:04;95799.94;;;6.17;65.10
15056;BME280;7626;42.674;23.284;2023-01-25T08:56:39;95801.09;;;6.10;64.14
15056;BME280;7626;42.674;23.284;2023-01-25T08:59:10;95807.50;;;6.00;65.71
15056;BME280;7626;42.674;23.284;2023-01-25T09:01:38;95802.88;;;6.08;65.47
15056;BME280;7626;42.674;23.284;2023-01-25T09:04:05;95805.41;;;6.10;65.89
15056;BME280;7626;42.674;23.284;2023-01-25T09:06:32;95806.06;;;6.15;66.77
15056;BME280;7626;42.674;23.284;2023-01-25T09:08:59;95813.59;;;6.19;66.97
15056;BME280;7626;42.674;23.284;2023-01-25T09:11:25;95806.63;;;6.21;66.77
15056;BME280;7626;42.674;23.284;2023-01-25T09:13:54;95808.19;;;6.25;66.47
15056;BME280;7626;42.674;23.284;2023-01-25T09:16:22;95800.06;;;6.14;65.39
15056;BME280;7626;42.674;23.284;2023-01-25T09:18:53;95793.69;;;6.23;66.61
15056;BME280;7626;42.674;23.284;2023-01-25T09:21:20;95796.16;;;6.26;66.24
15056;BME280;7626;42.674;23.284;2023-01-25T09:23:48;95788.81;;;6.17;65.15
15056;BME280;7626;42.674;23.284;2023-01-25T09:26:16;95790.34;;;6.21;65.85
15056;BME280;7626;42.674;23.284;2023-01-25T09:28:46;95790.13;;;6.27;66.72
15056;BME280;7626;42.674;23.284;2023-01-25T09:31:15;95786.50;;;6.31;66.83
15056;BME280;7626;42.674;23.284;2023-01-25T09:33:42;95790.50;;;6.38;66.58
15056;BME280;7626;42.674;23.284;2023-01-25T09:36:09;95780.25;;;6.37;66.07
15056;BME280;7626;42.674;23.284;2023-01-25T09:38:36;95773.25;;;6.40;66.67
15056;BME280;7626;42.674;23.284;2023-01-25T09:41:27;95767.97;;;6.43;66.89
15056;BME280;7626;42.674;23.284;2023-01-25T09:44:23;95762.75;;;6.45;67.31
15056;BME280;7626;42.674;23.284;2023-01-25T09:46:58;95761.00;;;6.45;66.74
15056;BME280;7626;42.674;23.284;2023-01-25T09:49:38;95751.59;;;6.44;65.93
15056;BME280;7626;42.674;23.284;2023-01-25T09:52:19;95750.50;;;6.50;66.55
15056;BME280;7626;42.674;23.284;2023-01-25T09:54:55;95750.44;;;6.52;67.07
15056;BME280;7626;42.674;23.284;2023-01-25T09:57:26;95747.16;;;6.48;66.15
15056;BME280;7626;42.674;23.284;2023-01-25T09:59:59;95739.28;;;6.51;66.83
15056;BME280;7626;42.674;23.284;2023-01-25T10:02:34;95734.00;;;6.54;67.03
15056;BME280;7626;42.674;23.284;2023-01-25T10:05:09;95739.88;;;6.58;67.37
15056;BME280;7626;42.674;23.284;2023-01-25T10:07:48;95733.94;;;6.56;66.85
15056;BME280;7626;42.674;23.284;2023-01-25T10:10:20;95722.66;;;6.58;66.98
15056;BME280;7626;42.674;23.284;2023-01-25T10:12:51;95722.59;;;6.60;66.75
15056;BME280;7626;42.674;23.284;2023-01-25T10:15:21;95713.06;;;6.62;67.00
15056;BME280;7626;42.674;23.284;2023-01-25T10:17:57;95711.13;;;6.67;66.69
15056;BME280;7626;42.674;23.284;2023-01-25T10:20:33;95707.56;;;6.70;66.57
15056;BME280;7626;42.674;23.284;2023-01-25T10:23:26;95701.56;;;6.69;66.78
15056;BME280;7626;42.674;23.284;2023-01-25T10:26:21;95695.44;;;6.72;66.74
15056;BME280;7626;42.674;23.284;2023-01-25T10:28:56;95697.97;;;6.73;66.88
15056;BME280;7626;42.674;23.284;2023-01-25T10:31:34;95700.47;;;6.75;66.51
15056;BME280;7626;42.674;23.284;2023-01-25T10:34:15;95696.06;;;6.77;66.82
15056;BME280;7626;42.674;23.284;2023-01-25T10:36:45;95696.00;;;6.78;66.76
15056;BME280;7626;42.674;23.284;2023-01-25T10:39:17;95677.91;;;6.80;66.82
15056;BME280;7626;42.674;23.284;2023-01-25T10:41:51;95687.31;;;6.81;66.70
15056;BME280;7626;42.674;23.284;2023-01-25T10:44:23;95680.53;;;6.78;65.72
15056;BME280;7626;42.674;23.284;2023-01-25T10:46:56;95672.94;;;6.75;65.04
15056;BME280;7626;42.674;23.284;2023-01-25T10:49:38;95673.53;;;6.63;64.99
15056;BME280;7626;42.674;23.284;2023-01-25T10:52:15;95661.59;;;6.60;65.17
15056;BME280;7626;42.674;23.284;2023-01-25T10:54:42;95657.81;;;6.68;65.20
15056;BME280;7626;42.674;23.284;2023-01-25T10:57:18;95653.41;;;6.71;65.60
15056;BME280;7626;42.674;23.284;2023-01-25T10:59:51;95664.41;;;6.75;64.68
15056;BME280;7626;42.674;23.284;2023-01-25T11:02:39;95660.88;;;6.76;64.44
15056;BME280;7626;42.674;23.284;2023-01-25T11:05:30;95654.78;;;6.78;64.90
15056;BME280;7626;42.674;23.284;2023-01-25T11:10:52;95643.84;;;6.73;63.53
15056;BME280;7626;42.674;23.284;2023-01-25T11:13:22;95650.31;;;6.82;64.86
15056;BME280;7626;42.674;23.284;2023-01-25T11:16:09;95639.31;;;6.78;64.24
15056;BME280;7626;42.674;23.284;2023-01-25T11:18:49;95634.16;;;6.78;63.98
15056;BME280;7626;42.674;23.284;2023-01-25T11:21:20;95637.28;;;6.85;65.04
15056;BME280;7626;42.674;23.284;2023-01-25T11:24:02;95632.81;;;6.89;65.16
15056;BME280;7626;42.674;23.284;2023-01-25T11:26:31;95629.34;;;6.90;64.91
15056;BME280;7626;42.674;23.284;2023-01-25T11:29:13;95625.78;;;6.92;64.90
15056;BME280;7626;42.674;23.284;2023-01-25T11:31:45;95623.91;;;6.96;64.75
15056;BME280;7626;42.674;23.284;2023-01-25T11:34:16;95628.06;;;6.98;65.18
15056;BME280;7626;42.674;23.284;2023-01-25T11:37:09;95617.91;;;6.95;63.20
15056;BME280;7626;42.674;23.284;2023-01-25T11:39:49;95611.09;;;6.94;62.79
15056;BME280;7626;42.674;23.284;2023-01-25T11:42:29;95604.41;;;6.90;62.34
15056;BME280;7626;42.674;23.284;2023-01-25T11:45:27;95599.03;;;6.95;63.55
15056;BME280;7626;42.674;23.284;2023-01-25T11:48:17;95587.75;;;6.97;64.13
15056;BME280;7626;42.674;23.284;2023-01-25T11:50:56;95583.41;;;6.98;63.89
15056;BME280;7626;42.674;23.284;2023-01-25T11:53:55;95575.63;;;6.99;63.48
15056;BME280;7626;42.674;23.284;2023-01-25T11:56:36;95582.34;;;7.02;63.86
15056;BME280;7626;42.674;23.284;2023-01-25T11:59:22;95578.94;;;7.02;63.75
15056;BME280;7626;42.674;23.284;2023-01-25T12:02:06;95576.28;;;7.03;63.82
15056;BME280;7626;42.674;23.284;2023-01-25T12:04:52;95582.28;;;7.04;63.99
15056;BME280;7626;42.674;23.284;2023-01-25T12:07:32;95576.50;;;6.98;62.45
15056;BME280;7626;42.674;23.284;2023-01-25T12:10:20;95575.47;;;7.03;63.58
15056;BME280;7626;42.674;23.284;2023-01-25T12:12:55;95568.09;;;6.95;61.41
15056;BME280;7626;42.674;23.284;2023-01-25T12:15:49;95565.31;;;6.99;62.29
15056;BME280;7626;42.674;23.284;2023-01-25T12:19:06;95566.13;;;7.00;62.99
15056;BME280;7626;42.674;23.284;2023-01-25T12:24:53;95567.94;;;6.98;62.67
15056;BME280;7626;42.674;23.284;2023-01-25T12:27:35;95548.22;;;6.97;61.86
15056;BME280;7626;42.674;23.284;2023-01-25T12:30:13;95557.56;;;6.99;63.37
15056;BME280;7626;42.674;23.284;2023-01-25T12:32:45;95549.84;;;6.99;63.31
15056;BME280;7626;42.674;23.284;2023-01-25T12:35:24;95550.53;;;7.03;63.14
15056;BME280;7626;42.674;23.284;2023-01-25T12:37:59;95545.44;;;7.02;63.05
15056;BME280;7626;42.674;23.284;2023-01-25T12:40:47;95549.22;;;6.94;61.49
15056;BME280;7626;42.674;23.284;2023-01-25T12:43:22;95543.06;;;6.97;61.12
15056;BME280;7626;42.674;23.284;2023-01-25T12:45:52;95541.19;;;7.00;62.04
15056;BME280;7626;42.674;23.284;2023-01-25T12:48:23;95544.91;;;6.95;62.85
15056;BME280;7626;42.674;23.284;2023-01-25T12:50:55;95537.16;;;6.95;63.19
15056;BME280;7626;42.674;23.284;2023-01-25T12:53:24;95533.63;;;6.97;63.34
15056;BME280;7626;42.674;23.284;2023-01-25T12:55:54;95535.25;;;6.98;63.84
15056;BME280;7626;42.674;23.284;2023-01-25T12:58:29;95536.28;;;6.96;62.75
15056;BME280;7626;42.674;23.284;2023-01-25T13:01:02;95533.44;;;7.00;63.88
15056;BME280;7626;42.674;23.284;2023-01-25T13:03:35;95533.38;;;7.02;62.79
15056;BME280;7626;42.674;23.284;2023-01-25T13:06:12;95527.53;;;6.98;62.93
15056;BME280;7626;42.674;23.284;2023-01-25T13:08:54;95524.34;;;6.93;62.17
15056;BME280;7626;42.674;23.284;2023-01-25T13:11:25;95523.22;;;6.99;63.16
15056;BME280;7626;42.674;23.284;2023-01-25T13:17:18;95514.88;;;6.94;61.39
15056;BME280;7626;42.674;23.284;2023-01-25T13:19:46;95515.72;;;6.94;62.20
15056;BME280;7626;42.674;23.284;2023-01-25T13:22:56;95508.00;;;6.94;61.94
15056;BME280;7626;42.674;23.284;2023-01-25T13:25:27;95504.72;;;6.91;61.97
15056;BME280;7626;42.674;23.284;2023-01-25T13:30:58;95506.44;;;6.90;61.76
15056;BME280;7626;42.674;23.284;2023-01-25T13:33:34;95509.19;;;6.87;61.23
15056;BME280;7626;42.674;23.284;2023-01-25T13:36:36;95517.16;;;6.82;60.28
15056;BME280;7626;42.674;23.284;2023-01-25T13:42:16;95518.34;;;6.75;60.15
15056;BME280;7626;42.674;23.284;2023-01-25T13:44:49;95522.06;;;6.70;59.89
15056;BME280;7626;42.674;23.284;2023-01-25T13:47:21;95532.22;;;6.73;60.73
15056;BME280;7626;42.674;23.284;2023-01-25T13:49:56;95527.06;;;6.73;60.72
15056;BME280;7626;42.674;23.284;2023-01-25T13:52:26;95518.41;;;6.74;61.39
15056;BME280;7626;42.674;23.284;2023-01-25T13:54:58;95525.25;;;6.75;61.21
15056;BME280;7626;42.674;23.284;2023-01-25T13:57:28;95533.25;;;6.69;60.14
15056;BME280;7626;42.674;23.284;2023-01-25T14:00:01;95524.16;;;6.61;60.72
15056;BME280;7626;42.674;23.284;2023-01-25T14:02:34;95525.81;;;6.62;61.27
15056;BME280;7626;42.674;23.284;2023-01-25T14:05:02;95521.59;;;6.61;60.79
15056;BME280;7626;42.674;23.284;2023-01-25T14:07:32;95526.44;;;6.68;61.83
15056;BME280;7626;42.674;23.284;2023-01-25T14:10:05;95523.16;;;6.64;61.36
15056;BME280;7626;42.674;23.284;2023-01-25T14:12:37;95517.03;;;6.67;61.72
15056;BME280;7626;42.674;23.284;2023-01-25T14:15:20;95528.94;;;6.69;61.97
15056;BME280;7626;42.674;23.284;2023-01-25T14:18:13;95518.56;;;6.71;61.63
15056;BME280;7626;42.674;23.284;2023-01-25T14:20:44;95519.41;;;6.71;61.75
15056;BME280;7626;42.674;23.284;2023-01-25T14:23:22;95514.19;;;6.73;62.34
15056;BME280;7626;42.674;23.284;2023-01-25T14:25:51;95518.41;;;6.74;62.79
15056;BME280;7626;42.674;23.284;2023-01-25T14:28:18;95507.22;;;6.75;63.02
15056;BME280;7626;42.674;23.284;2023-01-25T14:30:50;95509.72;;;6.76;63.59
15056;BME280;7626;42.674;23.284;2023-01-25T14:33:22;95506.22;;;6.77;63.51
15056;BME280;7626;42.674;23.284;2023-01-25T14:36:02;95497.66;;;6.77;62.87
15056;BME280;7626;42.674;23.284;2023-01-25T14:38:33;95493.31;;;6.77;62.64
15056;BME280;7626;42.674;23.284;2023-01-25T14:41:12;95500.97;;;6.79;62.95
15056;BME280;7626;42.674;23.284;2023-01-25T14:43:40;95500.09;;;6.80;63.18
15056;BME280;7626;42.674;23.284;2023-01-25T14:46:23;95499.41;;;6.76;61.59
15056;BME280;7626;42.674;23.284;2023-01-25T14:49:05;95498.56;;;6.76;62.50
15056;BME280;7626;42.674;23.284;2023-01-25T14:51:38;95492.84;;;6.69;61.24
15056;BME280;7626;42.674;23.284;2023-01-25T14:54:14;95501.31;;;6.73;62.19
15056;BME280;7626;42.674;23.284;2023-01-25T14:56:45;95500.44;;;6.72;62.25
15056;BME280;7626;42.674;23.284;2023-01-25T14:59:31;95500.59;;;6.69;62.28
15056;BME280;7626;42.674;23.284;2023-01-25T15:02:17;95506.59;;;6.70;62.79
15056;BME280;7626;42.674;23.284;2023-01-25T15:04:53;95513.47;;;6.69;62.40
15056;BME280;7626;42.674;23.284;2023-01-25T15:07:39;95517.81;;;6.69;62.52
15056;BME280;7626;42.674;23.284;2023-01-25T15:10:15;95522.13;;;6.68;62.14
15056;BME280;7626;42.674;23.284;2023-01-25T15:12:55;95523.38;;;6.59;61.81
15056;BME280;7626;42.674;23.284;2023-01-25T15:15:24;95525.81;;;6.62;62.33
15056;BME280;7626;42.674;23.284;2023-01-25T15:17:53;95532.56;;;6.65;62.34
15056;BME280;7626;42.674;23.284;2023-01-25T15:20:27;95533.69;;;6.59;61.77
15056;BME280;7626;42.674;23.284;2023-01-25T15:23:04;95538.69;;;6.62;61.77
15056;BME280;7626;42.674;23.284;2023-01-25T15:25:47;95530.34;;;6.57;61.32
15056;BME280;7626;42.674;23.284;2023-01-25T15:28:14;95539.63;;;6.61;62.25
15056;BME280;7626;42.674;23.284;2023-01-25T15:30:41;95538.84;;;6.59;61.48
15056;BME280;7626;42.674;23.284;2023-01-25T15:33:09;95547.50;;;6.58;61.70
15056;BME280;7626;42.674;23.284;2023-01-25T15:35:42;95550.13;;;6.57;61.75
15056;BME280;7626;42.674;23.284;2023-01-25T15:38:11;95541.03;;;6.50;60.92
15056;BME280;7626;42.674;23.284;2023-01-25T15:40:40;95545.06;;;6.55;61.47
15056;BME280;7626;42.674;23.284;2023-01-25T15:43:10;95554.53;;;6.55;62.10
15056;BME280;7626;42.674;23.284;2023-01-25T15:45:38;95544.38;;;6.52;62.10
15056;BME280;7626;42.674;23.284;2023-01-25T15:48:05;95546.88;;;6.53;61.61
15056;BME280;7626;42.674;23.284;2023-01-25T15:50:36;95550.47;;;6.49;60.81
15056;BME280;7626;42.674;23.284;2023-01-25T15:53:04;95543.63;;;6.50;61.67
15056;BME280;7626;42.674;23.284;2023-01-25T15:55:33;95538.59;;;6.47;60.64
15056;BME280;7626;42.674;23.284;2023-01-25T15:58:05;95538.53;;;6.48;60.58
15056;BME280;7626;42.674;23.284;2023-01-25T16:00:33;95539.63;;;6.42;60.75
15056;BME280;7626;42.674;23.284;2023-01-25T16:03:03;95534.19;;;6.30;60.11
15056;BME280;7626;42.674;23.284;2023-01-25T16:05:32;95539.16;;;6.34;61.42
15056;BME280;7626;42.674;23.284;2023-01-25T16:08:00;95549.72;;;6.28;60.86
15056;BME280;7626;42.674;23.284;2023-01-25T16:10:27;95545.44;;;6.29;61.73
15056;BME280;7626;42.674;23.284;2023-01-25T16:13:01;95537.00;;;6.25;61.10
15056;BME280;7626;42.674;23.284;2023-01-25T16:15:29;95538.88;;;6.21;61.43
15056;BME280;7626;42.674;23.284;2023-01-25T16:17:57;95539.94;;;6.17;61.19
15056;BME280;7626;42.674;23.284;2023-01-25T16:20:24;95538.31;;;6.15;60.84
15056;BME280;7626;42.674;23.284;2023-01-25T16:22:52;95534.09;;;6.14;60.84
15056;BME280;7626;42.674;23.284;2023-01-25T16:25:19;95536.94;;;6.07;60.38
15056;BME280;7626;42.674;23.284;2023-01-25T16:27:48;95538.38;;;6.13;61.44
15056;BME280;7626;42.674;23.284;2023-01-25T16:30:20;95537.56;;;6.13;60.62
15056;BME280;7626;42.674;23.284;2023-01-25T16:32:48;95530.78;;;6.10;60.75
15056;BME280;7626;42.674;23.284;2023-01-25T16:35:16;95529.75;;;6.14;61.36
15056;BME280;7626;42.674;23.284;2023-01-25T16:37:44;95530.72;;;6.12;61.38
15056;BME280;7626;42.674;23.284;2023-01-25T16:40:23;95527.31;;;6.11;61.27
15056;BME280;7626;42.674;23.284;2023-01-25T16:42:51;95527.91;;;5.99;60.45
15056;BME280;7626;42.674;23.284;2023-01-25T16:45:20;95542.53;;;5.97;61.01
15056;BME280;7626;42.674;23.284;2023-01-25T16:47:48;95521.16;;;5.95;60.91
15056;BME280;7626;42.674;23.284;2023-01-25T16:50:17;95530.78;;;5.91;61.16
15056;BME280;7626;42.674;23.284;2023-01-25T16:52:44;95527.22;;;5.94;61.37
15056;BME280;7626;42.674;23.284;2023-01-25T16:55:27;95530.06;;;5.87;61.81
15056;BME280;7626;42.674;23.284;2023-01-25T16:57:55;95529.03;;;5.92;60.45
15056;BME280;7626;42.674;23.284;2023-01-25T17:00:24;95522.84;;;5.96;61.72
15056;BME280;7626;42.674;23.284;2023-01-25T17:02:51;95516.75;;;5.98;61.69
15056;BME280;7626;42.674;23.284;2023-01-25T17:05:18;95519.31;;;5.98;61.63
15056;BME280;7626;42.674;23.284;2023-01-25T17:07:48;95519.19;;;6.01;61.73
15056;BME280;7626;42.674;23.284;2023-01-25T17:10:17;95525.38;;;5.97;61.06
15056;BME280;7626;42.674;23.284;2023-01-25T17:12:43;95528.66;;;6.01;61.33
15056;BME280;7626;42.674;23.284;2023-01-25T17:15:26;95523.88;;;5.92;60.76
15056;BME280;7626;42.674;23.284;2023-01-25T17:17:53;95516.81;;;5.97;62.21
15056;BME280;7626;42.674;23.284;2023-01-25T17:20:23;95528.72;;;5.99;61.96
15056;BME280;7626;42.674;23.284;2023-01-25T17:22:52;95535.44;;;6.02;61.75
15056;BME280;7626;42.674;23.284;2023-01-25T17:25:22;95521.69;;;6.03;62.01
15056;BME280;7626;42.674;23.284;2023-01-25T17:27:51;95533.03;;;5.99;61.77
15056;BME280;7626;42.674;23.284;2023-01-25T17:30:19;95524.72;;;5.92;61.28
15056;BME280;7626;42.674;23.284;2023-01-25T17:32:50;95522.91;;;5.94;61.80
15056;BME280;7626;42.674;23.284;2023-01-25T17:35:18;95520.41;;;5.93;61.39
15056;BME280;7626;42.674;23.284;2023-01-25T17:37:45;95522.97;;;5.93;61.99
15056;BME280;7626;42.674;23.284;2023-01-25T17:40:26;95516.91;;;5.94;62.31
15056;BME280;7626;42.674;23.284;2023-01-25T17:42:56;95514.50;;;5.90;60.96
15056;BME280;7626;42.674;23.284;2023-01-25T17:45:26;95508.50;;;5.90;61.67
15056;BME280;7626;42.674;23.284;2023-01-25T17:47:59;95499.41;;;5.83;61.11
15056;BME280;7626;42.674;23.284;2023-01-25T17:50:29;95504.28;;;5.89;61.58
15056;BME280;7626;42.674;23.284;2023-01-25T17:52:59;95503.41;;;5.88;61.87
15056;BME280;7626;42.674;23.284;2023-01-25T17:55:30;95499.25;;;5.86;60.90
15056;BME280;7626;42.674;23.284;2023-01-25T17:57:57;95496.56;;;5.89;61.27
15056;BME280;7626;42.674;23.284;2023-01-25T18:00:25;95493.00;;;5.92;61.58
15056;BME280;7626;42.674;23.284;2023-01-25T18:02:56;95492.22;;;5.89;61.99
15056;BME280;7626;42.674;23.284;2023-01-25T18:05:27;95488.34;;;5.81;60.55
15056;BME280;7626;42.674;23.284;2023-01-25T18:07:56;95486.25;;;5.89;61.22
15056;BME280;7626;42.674;23.284;2023-01-25T18:10:25;95485.34;;;5.90;61.37
15056;BME280;7626;42.674;23.284;2023-01-25T18:12:53;95489.66;;;5.89;61.45
15056;BME280;7626;42.674;23.284;2023-01-25T18:15:20;95487.09;;;5.89;61.89
15056;BME280;7626;42.674;23.284;2023-01-25T18:17:57;95490.50;;;5.90;61.77
15056;BME280;7626;42.674;23.284;2023-01-25T18:20:26;95489.56;;;5.72;61.50
15056;BME280;7626;42.674;23.284;2023-01-25T18:22:56;95486.53;;;5.83;62.23
15056;BME280;7626;42.674;23.284;2023-01-25T18:25:34;95485.47;;;5.87;62.22